createdAt,value
2018-09-17T00:01:07.298Z,67.00
2018-09-17T00:03:36.043Z,67.00
2018-09-17T00:06:04.807Z,67.00
2018-09-17T00:08:33.408Z,67.00
2018-09-17T00:11:02.068Z,67.00
2018-09-17T00:13:30.940Z,66.90
2018-09-17T00:15:59.658Z,66.90
2018-09-17T00:18:28.360Z,66.80
2018-09-17T00:20:56.999Z,66.90
2018-09-17T00:23:25.666Z,66.70
2018-09-17T00:25:54.451Z,66.70
2018-09-17T00:28:27.113Z,66.70
2018-09-17T00:30:58.450Z,66.70
2018-09-17T00:33:27.184Z,66.60
2018-09-17T00:35:55.866Z,66.60
2018-09-17T00:38:24.509Z,66.60
2018-09-17T00:40:53.043Z,66.70
2018-09-17T00:43:21.704Z,66.80
2018-09-17T00:45:50.586Z,66.60
2018-09-17T00:48:19.097Z,66.50
2018-09-17T00:50:47.776Z,66.50
2018-09-17T00:53:16.407Z,66.60
2018-09-17T00:55:45.224Z,66.60
2018-09-17T00:58:13.869Z,66.40
2018-09-17T01:00:42.290Z,66.50
2018-09-17T01:03:10.752Z,66.40
2018-09-17T01:05:39.246Z,66.50
2018-09-17T01:08:07.916Z,66.40
2018-09-17T01:10:36.624Z,66.40
2018-09-17T01:13:05.081Z,66.40
2018-09-17T01:15:33.558Z,66.30
2018-09-17T01:18:02.072Z,66.20
2018-09-17T01:20:30.544Z,66.30
2018-09-17T01:22:59.048Z,66.30
2018-09-17T01:25:27.741Z,66.20
2018-09-17T01:27:56.420Z,66.20
2018-09-17T01:30:25.144Z,66.30
2018-09-17T01:32:53.742Z,66.10
2018-09-17T01:35:22.668Z,66.30
2018-09-17T01:37:51.115Z,66.30
2018-09-17T01:40:19.597Z,66.10
2018-09-17T01:42:48.072Z,66.10
2018-09-17T01:45:16.757Z,66.10
2018-09-17T01:47:45.498Z,66.10
2018-09-17T01:50:14.148Z,66.00
2018-09-17T01:52:42.622Z,65.90
2018-09-17T01:55:11.081Z,65.90
2018-09-17T01:57:39.600Z,65.80
2018-09-17T02:00:08.293Z,65.90
2018-09-17T02:02:37.140Z,65.80
2018-09-17T02:05:05.880Z,65.80
2018-09-17T02:07:34.533Z,65.80
2018-09-17T02:10:03.018Z,65.70
2018-09-17T02:12:31.477Z,65.70
2018-09-17T02:15:00.169Z,65.70
2018-09-17T02:17:28.669Z,65.70
2018-09-17T02:19:57.349Z,65.60
2018-09-17T02:22:26.003Z,65.50
2018-09-17T02:24:54.981Z,65.50
2018-09-17T02:27:23.606Z,65.50
2018-09-17T02:29:52.078Z,65.40
2018-09-17T02:32:20.610Z,65.50
2018-09-17T02:34:49.029Z,65.60
2018-09-17T02:37:17.698Z,65.50
2018-09-17T02:39:46.202Z,65.40
2018-09-17T02:42:14.689Z,65.40
2018-09-17T02:44:43.212Z,65.50
2018-09-17T02:47:11.823Z,65.50
2018-09-17T02:49:41.637Z,65.40
2018-09-17T02:52:10.056Z,65.30
2018-09-17T02:54:38.729Z,65.20
2018-09-17T02:57:07.197Z,65.30
2018-09-17T02:59:35.705Z,65.20
2018-09-17T03:02:04.168Z,65.20
2018-09-17T03:04:32.854Z,65.20
2018-09-17T03:07:01.556Z,65.10
2018-09-17T03:09:30.020Z,65.20
2018-09-17T03:11:58.675Z,65.10
2018-09-17T03:14:28.585Z,65.10
2018-09-17T03:17:06.265Z,65.10
2018-09-17T03:19:35.052Z,65.00
2018-09-17T03:22:03.655Z,65.00
2018-09-17T03:24:32.310Z,65.00
2018-09-17T03:27:00.822Z,65.00
2018-09-17T03:29:38.316Z,65.00
2018-09-17T03:32:07.419Z,64.90
2018-09-17T03:34:36.096Z,64.90
2018-09-17T03:37:04.772Z,64.80
2018-09-17T03:39:33.467Z,64.80
2018-09-17T03:42:02.033Z,64.90
2018-09-17T03:44:30.636Z,64.80
2018-09-17T03:46:59.328Z,64.80
2018-09-17T03:49:27.831Z,64.90
2018-09-17T03:51:57.556Z,64.80
2018-09-17T03:54:26.224Z,64.80
2018-09-17T03:56:54.737Z,64.80
2018-09-17T03:59:23.384Z,64.80
2018-09-17T04:01:51.848Z,64.80
2018-09-17T04:04:20.321Z,64.70
2018-09-17T04:06:48.835Z,64.70
2018-09-17T04:09:17.485Z,64.70
2018-09-17T04:11:45.983Z,64.60
2018-09-17T04:14:14.444Z,64.60
2018-09-17T04:16:42.978Z,64.50
2018-09-17T04:19:11.840Z,64.60
2018-09-17T04:21:40.353Z,64.60
2018-09-17T04:24:08.990Z,64.50
2018-09-17T04:26:38.064Z,64.50
2018-09-17T04:29:06.954Z,64.50
2018-09-17T04:31:35.467Z,64.50
2018-09-17T04:34:03.934Z,64.50
2018-09-17T04:36:32.668Z,64.50
2018-09-17T04:39:01.347Z,64.50
2018-09-17T04:41:30.164Z,64.50
2018-09-17T04:43:58.912Z,64.40
2018-09-17T04:46:27.612Z,64.30
2018-09-17T04:48:56.269Z,64.40
2018-09-17T04:51:28.852Z,64.40
2018-09-17T04:53:57.540Z,64.30
2018-09-17T04:56:26.255Z,64.30
2018-09-17T04:58:54.744Z,64.30
2018-09-17T05:01:23.486Z,64.30
2018-09-17T05:03:52.188Z,64.30
2018-09-17T05:09:22.024Z,64.30
2018-09-17T05:11:50.444Z,64.30
2018-09-17T05:14:19.038Z,64.30
2018-09-17T05:16:47.582Z,64.30
2018-09-17T05:19:16.043Z,64.20
2018-09-17T05:21:44.520Z,64.30
2018-09-17T05:24:13.000Z,64.20
2018-09-17T05:26:41.529Z,64.20
2018-09-17T05:29:09.972Z,64.20
2018-09-17T05:31:38.440Z,64.20
2018-09-17T05:34:06.989Z,64.20
2018-09-17T05:36:35.413Z,64.20
2018-09-17T05:39:05.752Z,64.10
2018-09-17T05:41:34.240Z,64.10
2018-09-17T05:44:02.760Z,64.10
2018-09-17T05:46:31.158Z,64.10
2018-09-17T05:48:59.683Z,64.10
2018-09-17T05:51:28.780Z,64.20
2018-09-17T05:53:57.482Z,64.10
2018-09-17T05:56:25.944Z,64.10
2018-09-17T05:58:54.865Z,64.10
2018-09-17T06:01:24.084Z,64.10
2018-09-17T06:03:53.268Z,64.00
2018-09-17T06:06:21.708Z,64.00
2018-09-17T06:08:50.277Z,64.10
2018-09-17T06:11:18.886Z,64.00
2018-09-17T06:13:47.337Z,64.10
2018-09-17T06:16:16.044Z,64.00
2018-09-17T06:18:44.498Z,64.00
2018-09-17T06:21:12.986Z,64.10
2018-09-17T06:23:41.454Z,64.00
2018-09-17T06:26:10.160Z,64.00
2018-09-17T06:28:38.680Z,64.00
2018-09-17T06:31:07.180Z,64.00
2018-09-17T06:33:35.565Z,64.00
2018-09-17T06:36:04.054Z,64.00
2018-09-17T06:38:32.531Z,64.00
2018-09-17T06:41:01.048Z,64.00
2018-09-17T06:43:29.498Z,64.00
2018-09-17T06:45:57.998Z,64.00
2018-09-17T06:48:26.461Z,64.00
2018-09-17T06:50:54.956Z,64.00
2018-09-17T06:53:23.404Z,64.00
2018-09-17T06:55:51.892Z,64.00
2018-09-17T06:58:20.619Z,64.00
2018-09-17T07:00:49.067Z,64.00
2018-09-17T07:03:17.537Z,64.00
2018-09-17T07:05:46.010Z,64.00
2018-09-17T07:08:14.672Z,64.00
2018-09-17T07:10:43.180Z,64.00
2018-09-17T07:13:12.825Z,64.00
2018-09-17T07:15:41.364Z,63.90
2018-09-17T07:18:09.869Z,64.00
2018-09-17T07:20:38.570Z,64.00
2018-09-17T07:23:07.041Z,64.00
2018-09-17T07:25:35.488Z,64.00
2018-09-17T07:28:04.040Z,64.00
2018-09-17T07:30:32.496Z,64.00
2018-09-17T07:33:01.183Z,64.00
2018-09-17T07:35:29.646Z,64.00
2018-09-17T07:37:58.133Z,64.10
2018-09-17T07:40:26.598Z,64.10
2018-09-17T07:42:55.072Z,64.20
2018-09-17T07:45:23.944Z,64.10
2018-09-17T07:47:52.504Z,64.20
2018-09-17T07:50:21.156Z,64.20
2018-09-17T07:52:49.737Z,64.20
2018-09-17T07:55:22.898Z,64.20
2018-09-17T07:57:51.360Z,64.20
2018-09-17T08:00:19.849Z,64.30
2018-09-17T08:02:48.348Z,64.30
2018-09-17T08:05:17.040Z,64.30
2018-09-17T08:07:45.512Z,64.30
2018-09-17T08:10:20.080Z,64.30
2018-09-17T08:12:49.182Z,64.30
2018-09-17T08:15:17.761Z,64.40
2018-09-17T08:17:46.161Z,64.30
2018-09-17T08:20:14.710Z,64.40
2018-09-17T08:22:43.159Z,64.40
2018-09-17T08:25:11.807Z,64.40
2018-09-17T08:27:40.330Z,64.40
2018-09-17T08:30:09.385Z,64.40
2018-09-17T08:32:37.877Z,64.40
2018-09-17T08:35:07.155Z,64.40
2018-09-17T08:37:35.644Z,64.50
2018-09-17T08:40:04.327Z,64.40
2018-09-17T08:42:32.820Z,64.50
2018-09-17T08:45:01.310Z,64.40
2018-09-17T08:47:29.768Z,64.50
2018-09-17T08:49:58.259Z,64.50
2018-09-17T08:52:26.796Z,64.60
2018-09-17T08:55:00.867Z,64.60
2018-09-17T08:57:31.400Z,64.60
2018-09-17T09:00:05.360Z,64.50
2018-09-17T09:02:39.092Z,64.60
2018-09-17T09:05:12.938Z,64.60
2018-09-17T09:07:46.677Z,64.60
2018-09-17T09:10:23.365Z,64.60
2018-09-17T09:12:57.536Z,64.70
2018-09-17T09:15:31.382Z,64.70
2018-09-17T09:17:59.886Z,64.70
2018-09-17T09:20:28.584Z,64.70
2018-09-17T09:22:57.051Z,64.80
2018-09-17T09:25:25.889Z,64.70
2018-09-17T09:27:54.415Z,64.80
2018-09-17T09:30:23.256Z,64.70
2018-09-17T09:32:51.825Z,64.80
2018-09-17T09:35:20.585Z,64.80
2018-09-17T09:37:49.166Z,64.80
2018-09-17T09:40:17.639Z,64.90
2018-09-17T09:42:46.124Z,64.90
2018-09-17T09:45:15.604Z,64.90
2018-09-17T09:47:44.381Z,64.90
2018-09-17T09:50:12.840Z,64.90
2018-09-17T09:52:41.661Z,64.90
2018-09-17T09:55:10.104Z,65.00
2018-09-17T09:57:38.668Z,65.00
2018-09-17T10:00:14.385Z,64.90
2018-09-17T10:02:48.422Z,65.00
2018-09-17T10:05:17.240Z,65.00
2018-09-17T10:07:45.660Z,65.10
2018-09-17T10:10:19.492Z,65.00
2018-09-17T10:12:53.116Z,65.00
2018-09-17T10:15:26.813Z,65.10
2018-09-17T10:18:00.892Z,65.10
2018-09-17T10:20:29.396Z,65.10
2018-09-17T10:22:57.837Z,65.20
2018-09-17T10:25:26.311Z,65.20
2018-09-17T10:27:54.852Z,65.20
2018-09-17T10:30:23.332Z,65.30
2018-09-17T10:32:51.743Z,65.20
2018-09-17T10:35:20.252Z,65.20
2018-09-17T10:37:48.745Z,65.30
2018-09-17T10:40:17.196Z,65.30
2018-09-17T10:42:45.671Z,65.30
2018-09-17T10:45:14.184Z,65.30
2018-09-17T10:47:42.672Z,65.40
2018-09-17T10:50:11.720Z,65.40
2018-09-17T10:52:40.789Z,65.40
2018-09-17T10:55:09.307Z,65.40
2018-09-17T10:57:38.153Z,65.40
2018-09-17T11:00:06.884Z,65.40
2018-09-17T11:02:35.533Z,65.50
2018-09-17T11:05:04.065Z,65.40
2018-09-17T11:07:32.512Z,65.40
2018-09-17T11:10:01.012Z,65.50
2018-09-17T11:12:29.597Z,65.50
2018-09-17T11:14:58.176Z,65.50
2018-09-17T11:17:26.787Z,65.50
2018-09-17T11:19:55.340Z,65.50
2018-09-17T11:22:24.090Z,65.50
2018-09-17T11:24:52.741Z,65.50
2018-09-17T11:27:21.201Z,65.50
2018-09-17T11:29:49.694Z,65.50
2018-09-17T11:32:18.376Z,65.60
2018-09-17T11:34:46.856Z,65.70
2018-09-17T11:37:15.292Z,65.60
2018-09-17T11:39:43.776Z,65.70
2018-09-17T11:42:12.564Z,65.60
2018-09-17T11:44:40.949Z,65.60
2018-09-17T11:47:09.752Z,65.60
2018-09-17T11:49:38.315Z,65.70
2018-09-17T11:52:08.116Z,65.60
2018-09-17T11:54:36.508Z,65.70
2018-09-17T11:57:05.054Z,65.70
2018-09-17T11:59:33.472Z,65.70
2018-09-17T12:02:09.102Z,65.80
2018-09-17T12:04:42.967Z,65.90
2018-09-17T12:07:16.926Z,65.80
2018-09-17T12:09:45.421Z,65.70
2018-09-17T12:12:13.959Z,65.80
2018-09-17T12:14:42.427Z,65.80
2018-09-17T12:17:10.879Z,65.80
2018-09-17T12:19:39.354Z,65.80
2018-09-17T12:22:07.849Z,65.80
2018-09-17T12:24:36.280Z,65.80
2018-09-17T12:27:04.809Z,65.90
2018-09-17T12:29:33.292Z,65.90
2018-09-17T12:32:01.762Z,65.90
2018-09-17T12:34:30.212Z,65.90
2018-09-17T12:36:58.968Z,65.90
2018-09-17T12:39:27.418Z,65.90
2018-09-17T12:41:56.092Z,65.90
2018-09-17T12:44:24.596Z,66.00
2018-09-17T12:46:53.055Z,65.90
2018-09-17T12:49:21.545Z,66.00
2018-09-17T12:51:50.363Z,66.00
2018-09-17T12:54:20.303Z,66.00
2018-09-17T12:56:48.889Z,66.00
2018-09-17T12:59:17.357Z,66.00
2018-09-17T13:01:45.758Z,66.00
2018-09-17T13:04:14.256Z,66.00
2018-09-17T13:06:42.720Z,66.00
2018-09-17T13:09:12.149Z,66.10
2018-09-17T13:11:41.377Z,66.10
2018-09-17T13:14:09.834Z,66.10
2018-09-17T13:16:39.468Z,66.10
2018-09-17T13:19:09.808Z,66.10
2018-09-17T13:21:38.294Z,66.10
2018-09-17T13:24:07.487Z,66.10
2018-09-17T13:26:36.612Z,66.10
2018-09-17T13:29:05.194Z,66.10
2018-09-17T13:31:33.945Z,66.10
2018-09-17T13:34:02.331Z,66.10
2018-09-17T13:36:31.004Z,66.10
2018-09-17T13:38:59.552Z,66.00
2018-09-17T13:41:27.976Z,66.00
2018-09-17T13:43:56.476Z,66.00
2018-09-17T13:46:25.248Z,66.10
2018-09-17T13:48:53.724Z,66.10
2018-09-17T13:51:22.146Z,66.00
2018-09-17T13:56:19.051Z,66.00
2018-09-17T13:58:47.549Z,66.00
2018-09-17T14:01:15.909Z,66.00
2018-09-17T14:03:44.303Z,66.00
2018-09-17T14:06:12.822Z,66.00
2018-09-17T14:08:41.256Z,66.00
2018-09-17T14:11:09.783Z,66.00
2018-09-17T14:13:38.269Z,66.00
2018-09-17T14:16:08.180Z,66.00
2018-09-17T14:18:37.409Z,66.00
2018-09-17T14:21:06.129Z,66.00
2018-09-17T14:23:34.884Z,66.00
2018-09-17T14:26:03.415Z,66.00
2018-09-17T14:28:31.964Z,66.00
2018-09-17T14:31:00.514Z,66.00
2018-09-17T14:33:34.299Z,66.00
2018-09-17T14:36:02.804Z,66.00
2018-09-17T14:38:31.400Z,65.90
2018-09-17T14:40:59.996Z,65.90
2018-09-17T14:43:28.391Z,65.90
2018-09-17T14:45:57.067Z,65.90
2018-09-17T14:48:25.792Z,65.90
2018-09-17T14:50:54.631Z,65.90
2018-09-17T14:53:23.360Z,65.90
2018-09-17T14:55:51.849Z,65.90
2018-09-17T14:58:20.751Z,65.90
2018-09-17T15:00:49.253Z,65.90
2018-09-17T15:03:17.716Z,65.90
2018-09-17T15:05:46.138Z,65.90
2018-09-17T15:08:14.675Z,65.90
2018-09-17T15:10:43.109Z,65.90
2018-09-17T15:13:11.577Z,65.90
2018-09-17T15:15:46.848Z,65.90
2018-09-17T15:18:16.130Z,65.90
2018-09-17T15:20:44.775Z,65.90
2018-09-17T15:23:13.340Z,65.90
2018-09-17T15:25:41.788Z,65.90
2018-09-17T15:28:10.322Z,65.90
2018-09-17T15:30:38.713Z,65.90
2018-09-17T15:33:07.392Z,65.90
2018-09-17T15:35:35.889Z,65.90
2018-09-17T15:38:04.399Z,65.90
2018-09-17T15:40:33.057Z,65.90
2018-09-17T15:43:01.677Z,65.80
2018-09-17T15:45:30.284Z,65.90
2018-09-17T15:47:58.794Z,65.80
2018-09-17T15:50:27.231Z,65.80
2018-09-17T15:52:55.944Z,65.80
2018-09-17T15:55:24.641Z,65.80
2018-09-17T15:57:53.314Z,65.80
2018-09-17T16:00:22.100Z,65.80
2018-09-17T16:02:50.635Z,65.80
2018-09-17T16:05:19.093Z,65.80
2018-09-17T16:07:47.575Z,65.80
2018-09-17T16:10:16.051Z,65.80
2018-09-17T16:12:44.532Z,65.80
2018-09-17T16:15:13.035Z,65.80
2018-09-17T16:17:41.483Z,65.80
2018-09-17T16:20:10.016Z,65.80
2018-09-17T16:22:38.467Z,65.80
2018-09-17T16:25:06.956Z,65.80
2018-09-17T16:27:35.466Z,65.70
2018-09-17T16:30:04.080Z,65.70
2018-09-17T16:32:32.564Z,65.80
2018-09-17T16:35:01.074Z,65.80
2018-09-17T16:37:29.546Z,65.70
2018-09-17T16:39:58.031Z,65.70
2018-09-17T16:42:26.509Z,65.70
2018-09-17T16:44:55.017Z,65.70
2018-09-17T16:47:23.452Z,65.70
2018-09-17T16:49:52.064Z,65.70
2018-09-17T16:52:20.615Z,65.70
2018-09-17T16:54:49.293Z,65.70
2018-09-17T16:57:17.790Z,65.70
2018-09-17T16:59:46.360Z,65.70
2018-09-17T17:02:15.144Z,65.70
2018-09-17T17:04:43.686Z,65.70
2018-09-17T17:07:12.172Z,65.70
2018-09-17T17:09:40.623Z,65.70
2018-09-17T17:12:09.110Z,65.60
2018-09-17T17:14:37.629Z,65.70
2018-09-17T17:17:06.053Z,65.70
2018-09-17T17:19:34.533Z,65.70
2018-09-17T17:22:03.017Z,65.70
2018-09-17T17:24:31.472Z,65.60
2018-09-17T17:26:59.983Z,65.60
2018-09-17T17:29:28.459Z,65.60
2018-09-17T17:31:56.957Z,65.60
2018-09-17T17:34:25.454Z,65.70
2018-09-17T17:36:54.041Z,65.60
2018-09-17T17:41:51.076Z,65.60
2018-09-17T17:44:19.751Z,65.60
2018-09-17T17:46:48.232Z,65.60
2018-09-17T17:49:16.707Z,65.60
2018-09-17T17:51:45.201Z,65.70
2018-09-17T17:54:14.736Z,65.70
2018-09-17T17:56:43.174Z,65.60
2018-09-17T17:59:11.624Z,65.60
2018-09-17T18:01:40.144Z,65.70
2018-09-17T18:04:08.604Z,65.70
2018-09-17T18:06:37.490Z,65.70
2018-09-17T18:09:08.995Z,65.80
2018-09-17T18:11:37.808Z,65.80
2018-09-17T18:14:06.428Z,65.80
2018-09-17T18:16:34.930Z,65.80
2018-09-17T18:19:03.670Z,65.80
2018-09-17T18:21:32.358Z,65.80
2018-09-17T18:24:00.942Z,65.80
2018-09-17T18:26:29.799Z,65.80
2018-09-17T18:28:58.410Z,65.80
2018-09-17T18:31:26.800Z,65.80
2018-09-17T18:33:55.280Z,65.80
2018-09-17T18:36:23.774Z,65.80
2018-09-17T18:38:52.297Z,65.80
2018-09-17T18:41:20.707Z,65.80
2018-09-17T18:43:49.200Z,65.90
2018-09-17T18:46:17.663Z,65.90
2018-09-17T18:48:46.285Z,65.90
2018-09-17T18:51:14.857Z,65.90
2018-09-17T18:53:43.379Z,65.90
2018-09-17T18:56:11.813Z,65.90
2018-09-17T18:58:40.289Z,65.90
2018-09-17T19:01:08.764Z,65.90
2018-09-17T19:03:37.254Z,65.90
2018-09-17T19:06:06.146Z,65.90
2018-09-17T19:08:34.675Z,66.00
2018-09-17T19:11:03.087Z,66.00
2018-09-17T19:13:31.589Z,66.00
2018-09-17T19:16:00.223Z,66.00
2018-09-17T19:18:28.757Z,66.00
2018-09-17T19:20:57.519Z,66.00
2018-09-17T19:23:30.976Z,66.00
2018-09-17T19:25:59.557Z,66.00
2018-09-17T19:28:33.338Z,66.00
2018-09-17T19:31:01.820Z,66.00
2018-09-17T19:33:30.320Z,66.00
2018-09-17T19:35:58.814Z,66.00
2018-09-17T19:38:32.753Z,66.00
2018-09-17T19:41:01.220Z,66.00
2018-09-17T19:43:29.764Z,66.00
2018-09-17T19:46:03.512Z,66.00
2018-09-17T19:48:32.024Z,66.00
2018-09-17T19:51:05.871Z,66.00
2018-09-17T19:53:34.314Z,66.00
2018-09-17T19:56:02.989Z,65.90
2018-09-17T19:58:36.865Z,65.90
2018-09-17T20:01:05.328Z,65.80
2018-09-17T20:03:33.783Z,66.20
2018-09-17T20:06:07.652Z,65.90
2018-09-17T20:08:38.070Z,65.80
2018-09-17T20:11:06.608Z,66.00
2018-09-17T20:13:35.025Z,66.00
2018-09-17T20:16:03.644Z,65.70
2018-09-17T20:18:32.875Z,65.70
2018-09-17T20:21:01.309Z,65.70
2018-09-17T20:23:30.167Z,65.80
2018-09-17T20:25:58.670Z,65.80
2018-09-17T20:28:27.146Z,66.10
2018-09-17T20:30:56.118Z,65.80
2018-09-17T20:33:29.113Z,65.60
2018-09-17T20:35:57.542Z,65.80
2018-09-17T20:38:26.291Z,65.80
2018-09-17T20:43:22.718Z,66.20
2018-09-17T20:45:51.629Z,65.70
2018-09-17T20:48:20.375Z,65.90
2018-09-17T20:50:48.976Z,65.70
2018-09-17T20:53:17.464Z,65.50
2018-09-17T20:55:45.954Z,65.30
2018-09-17T20:58:14.448Z,65.30
2018-09-17T21:00:42.989Z,66.00
2018-09-17T21:03:11.409Z,66.10
2018-09-17T21:05:39.865Z,65.50
2018-09-17T21:08:08.540Z,65.70
2018-09-17T21:10:37.962Z,65.40
2018-09-17T21:13:06.658Z,65.90
2018-09-17T21:15:35.170Z,66.00
2018-09-17T21:18:03.713Z,66.50
2018-09-17T21:20:32.220Z,66.40
2018-09-17T21:23:00.695Z,66.40
2018-09-17T21:25:30.753Z,66.40
2018-09-17T21:27:59.535Z,66.60
2018-09-17T21:30:27.953Z,66.70
2018-09-17T21:32:56.440Z,67.00
2018-09-17T21:35:24.924Z,66.70
2018-09-17T21:37:53.591Z,67.00
2018-09-17T21:40:22.064Z,66.60
2018-09-17T21:42:50.633Z,66.50
2018-09-17T21:45:19.078Z,66.90
2018-09-17T21:47:47.520Z,66.70
2018-09-17T21:50:16.189Z,66.40
2018-09-17T21:52:44.701Z,66.50
2018-09-17T21:55:13.153Z,66.70
2018-09-17T21:57:41.654Z,66.50
2018-09-17T22:00:10.700Z,66.90
2018-09-17T22:02:39.243Z,66.80
2018-09-17T22:05:07.921Z,66.70
2018-09-17T22:07:36.436Z,66.40
2018-09-17T22:10:04.986Z,66.10
2018-09-17T22:12:33.579Z,66.40
2018-09-17T22:15:02.024Z,66.50
2018-09-17T22:17:30.487Z,66.50
2018-09-17T22:19:59.024Z,66.30
2018-09-17T22:22:27.468Z,66.50
2018-09-17T22:24:55.949Z,66.30
2018-09-17T22:27:24.620Z,66.60
2018-09-17T22:29:53.136Z,66.40
2018-09-17T22:32:21.585Z,66.50
2018-09-17T22:34:50.317Z,66.40
2018-09-17T22:37:18.760Z,66.40
2018-09-17T22:39:47.269Z,65.40
2018-09-17T22:42:15.946Z,65.60
2018-09-17T22:44:44.413Z,65.90
2018-09-17T22:47:12.907Z,66.30
2018-09-17T22:49:41.377Z,66.30
2018-09-17T22:52:09.905Z,65.90
2018-09-17T22:54:38.508Z,65.80
2018-09-17T22:57:07.175Z,65.40
2018-09-17T22:59:35.699Z,65.00
2018-09-17T23:02:04.337Z,65.30
2018-09-17T23:04:32.877Z,65.20
2018-09-17T23:07:01.608Z,64.70
2018-09-17T23:09:30.031Z,64.50
2018-09-17T23:11:58.533Z,64.50
2018-09-17T23:14:27.163Z,64.70
2018-09-17T23:16:55.732Z,65.20
2018-09-17T23:19:24.154Z,64.70
2018-09-17T23:21:52.710Z,64.80
2018-09-17T23:24:21.118Z,65.00
2018-09-17T23:26:49.608Z,64.60
2018-09-17T23:29:18.166Z,65.00
2018-09-17T23:31:46.792Z,65.50
2018-09-17T23:34:15.240Z,65.40
2018-09-17T23:36:43.784Z,66.10
2018-09-17T23:39:12.771Z,66.10
2018-09-17T23:41:41.624Z,66.00
2018-09-17T23:44:11.406Z,66.00
2018-09-17T23:46:39.892Z,65.80
2018-09-17T23:49:08.355Z,66.10
2018-09-17T23:51:36.903Z,65.60
2018-09-17T23:54:05.349Z,66.10
2018-09-17T23:56:33.876Z,65.60
2018-09-17T23:59:02.289Z,65.80
